Time;durP1;ratioP1;P1;durP2;ratioP2;P2;SDS_P1;SDS_P2;PMS_P1;PMS_P2;Temp;Humidity;BMP_temperature;BMP_pressure;BME280_temperature;BME280_humidity;BME280_pressure;Samples;Min_cycle;Max_cycle;Signal;HPM_P1;HPM_P2
2021/10/13 00:00:25;;;;;;;15.52;10.50;;;;;;;;;;4993350;28;20077;-65
2021/10/13 00:02:51;;;;;;;19.48;10.10;;;;;;;;;;4992734;28;20050;-64
2021/10/13 00:05:16;;;;;;;21.75;10.57;;;;;;;;;;4992966;28;20035;-65
2021/10/13 00:07:41;;;;;;;18.63;11.32;;;;;;;;;;4993034;28;20113;-65
2021/10/13 00:10:07;;;;;;;22.50;11.05;;;;;;;;;;4993111;28;20018;-65
2021/10/13 00:12:33;;;;;;;15.02;10.57;;;;;;;;;;4993216;28;20483;-64
2021/10/13 00:14:59;;;;;;;19.25;10.15;;;;;;;;;;4992988;28;20037;-67
2021/10/13 00:17:24;;;;;;;23.77;11.48;;;;;;;;;;4993276;28;20022;-65
2021/10/13 00:19:50;;;;;;;16.10;10.43;;;;;;;;;;4993055;28;20018;-66
2021/10/13 00:22:15;;;;;;;19.23;10.38;;;;;;;;;;4993051;28;20034;-64
2021/10/13 00:24:40;;;;;;;19.85;11.10;;;;;;;;;;4993009;28;20027;-64
2021/10/13 00:27:05;;;;;;;21.20;10.77;;;;;;;;;;4995648;28;20038;-66
2021/10/13 00:29:32;;;;;;;17.65;10.63;;;;;;;;;;4996478;28;20018;-64
2021/10/13 00:31:58;;;;;;;17.42;10.30;;;;;;;;;;4996147;28;20054;-67
2021/10/13 00:34:23;;;;;;;17.08;10.25;;;;;;;;;;4996727;28;20065;-66
2021/10/13 00:36:48;;;;;;;16.80;10.68;;;;;;;;;;4996436;28;20018;-65
2021/10/13 00:39:13;;;;;;;18.10;10.25;;;;;;;;;;4996548;28;20105;-64
2021/10/13 00:41:39;;;;;;;22.02;11.07;;;;;;;;;;4996130;28;20022;-65
2021/10/13 00:44:04;;;;;;;20.15;11.15;;;;;;;;;;4996118;28;20040;-65
2021/10/13 00:46:29;;;;;;;21.00;11.25;;;;;;;;;;4996050;28;20026;-64
2021/10/13 00:48:55;;;;;;;21.80;11.20;;;;;;;;;;4996133;28;20015;-64
2021/10/13 00:51:20;;;;;;;24.95;12.13;;;;;;;;;;4996134;28;20029;-64
2021/10/13 00:53:46;;;;;;;21.40;11.65;;;;;;;;;;4996269;28;20053;-65
2021/10/13 00:56:11;;;;;;;17.65;10.90;;;;;;;;;;4996253;28;20126;-64
2021/10/13 00:58:36;;;;;;;20.77;11.35;;;;;;;;;;4996507;28;20385;-64
2021/10/13 01:01:04;;;;;;;25.20;11.45;;;;;;;;;;4996507;28;20007;-64
2021/10/13 01:03:33;;;;;;;18.92;11.45;;;;;;;;;;4995663;28;20547;-64
2021/10/13 01:06:16;;;;;;;25.33;11.35;;;;;;;;;;4995642;28;20034;-65
2021/10/13 01:08:47;;;;;;;18.17;10.68;;;;;;;;;;4995888;28;20031;-64
2021/10/13 01:11:23;;;;;;;21.30;11.38;;;;;;;;;;4995901;28;20018;-64
2021/10/13 01:14:01;;;;;;;20.25;11.32;;;;;;;;;;4995841;28;20022;-64
2021/10/13 01:16:45;;;;;;;19.98;11.55;;;;;;;;;;4995534;28;20022;-64
2021/10/13 01:19:18;;;;;;;20.60;11.48;;;;;;;;;;4995617;28;20105;-65
2021/10/13 01:21:58;;;;;;;21.45;10.98;;;;;;;;;;4995788;28;20021;-64
2021/10/13 01:24:40;;;;;;;22.00;12.18;;;;;;;;;;4995835;28;20113;-64
2021/10/13 01:27:17;;;;;;;19.67;11.98;;;;;;;;;;4995634;28;20022;-64
2021/10/13 01:29:43;;;;;;;20.17;11.18;;;;;;;;;;4995292;28;20022;-65
2021/10/13 01:32:13;;;;;;;20.27;12.30;;;;;;;;;;4995354;28;20102;-65
2021/10/13 01:34:40;;;;;;;20.27;11.40;;;;;;;;;;4995403;28;20076;-64
2021/10/13 01:37:07;;;;;;;19.17;11.23;;;;;;;;;;4995242;28;20478;-65
2021/10/13 01:39:34;;;;;;;21.55;11.60;;;;;;;;;;4995043;28;20025;-64
2021/10/13 01:42:03;;;;;;;21.42;11.70;;;;;;;;;;4995209;28;20029;-65
2021/10/13 01:44:30;;;;;;;21.88;11.98;;;;;;;;;;4995241;28;20490;-64
2021/10/13 01:46:56;;;;;;;19.98;11.20;;;;;;;;;;4995064;28;20072;-65
2021/10/13 01:49:22;;;;;;;20.90;11.55;;;;;;;;;;4995389;28;20026;-64
2021/10/13 01:51:48;;;;;;;23.75;12.07;;;;;;;;;;4995073;28;20053;-64
2021/10/13 01:54:14;;;;;;;23.02;13.25;;;;;;;;;;4994777;28;20069;-65
2021/10/13 01:56:40;;;;;;;22.63;13.45;;;;;;;;;;4995062;28;20495;-64
2021/10/13 01:59:06;;;;;;;21.15;12.02;;;;;;;;;;4994885;28;20018;-65
2021/10/13 02:01:33;;;;;;;22.85;13.02;;;;;;;;;;4994663;28;20015;-66
2021/10/13 02:04:01;;;;;;;24.60;12.93;;;;;;;;;;4994317;28;20053;-65
2021/10/13 02:06:26;;;;;;;23.98;12.45;;;;;;;;;;4994632;28;20022;-65
2021/10/13 02:08:53;;;;;;;23.17;12.75;;;;;;;;;;4994310;28;20018;-65
2021/10/13 02:11:22;;;;;;;22.80;12.00;;;;;;;;;;4995055;28;20081;-64
2021/10/13 02:13:47;;;;;;;23.60;13.30;;;;;;;;;;4994909;28;20045;-65
2021/10/13 02:16:13;;;;;;;20.80;11.73;;;;;;;;;;4994475;28;20050;-65
2021/10/13 02:18:39;;;;;;;25.27;12.30;;;;;;;;;;4994733;28;20424;-64
2021/10/13 02:21:05;;;;;;;21.27;12.10;;;;;;;;;;4994405;28;20094;-65
2021/10/13 02:23:32;;;;;;;22.05;12.27;;;;;;;;;;4994426;28;20030;-66
2021/10/13 02:25:58;;;;;;;23.48;12.43;;;;;;;;;;4994248;28;20478;-64
2021/10/13 02:28:56;;;;;;;20.77;11.85;;;;;;;;;;4994479;28;20497;-65
2021/10/13 02:31:21;;;;;;;23.42;12.40;;;;;;;;;;4972189;28;20034;-65
2021/10/13 02:33:46;;;;;;;25.17;12.70;;;;;;;;;;4994210;28;20022;-64
2021/10/13 02:36:12;;;;;;;23.88;12.00;;;;;;;;;;4994227;28;20058;-64
2021/10/13 02:38:38;;;;;;;19.05;11.63;;;;;;;;;;4994223;28;20364;-65
2021/10/13 02:41:03;;;;;;;23.55;11.25;;;;;;;;;;4994162;28;20033;-65
2021/10/13 02:43:28;;;;;;;19.52;11.85;;;;;;;;;;4993934;28;20549;-65
2021/10/13 02:46:06;;;;;;;20.02;11.88;;;;;;;;;;4993552;28;20077;-65
2021/10/13 02:48:33;;;;;;;23.95;12.65;;;;;;;;;;4993649;28;20022;-65
2021/10/13 02:50:59;;;;;;;22.80;12.80;;;;;;;;;;4993849;28;20060;-64
2021/10/13 02:53:33;;;;;;;21.40;11.35;;;;;;;;;;4994018;28;20030;-65
2021/10/13 02:56:01;;;;;;;22.25;11.30;;;;;;;;;;4993749;28;20018;-65
2021/10/13 02:58:30;;;;;;;25.30;13.23;;;;;;;;;;4993860;28;20022;-64
2021/10/13 03:00:57;;;;;;;25.17;11.32;;;;;;;;;;4993909;28;20022;-65
2021/10/13 03:03:25;;;;;;;20.90;11.93;;;;;;;;;;4993414;28;20576;-64
2021/10/13 03:05:51;;;;;;;22.92;12.32;;;;;;;;;;4993757;28;20022;-65
2021/10/13 03:08:20;;;;;;;20.55;11.63;;;;;;;;;;4994140;28;20026;-65
2021/10/13 03:10:46;;;;;;;25.35;11.68;;;;;;;;;;4993651;28;20022;-64
2021/10/13 03:13:13;;;;;;;19.13;11.32;;;;;;;;;;4993598;28;20414;-64
2021/10/13 03:15:41;;;;;;;22.92;11.10;;;;;;;;;;4993696;28;20029;-65
2021/10/13 03:18:07;;;;;;;19.75;10.25;;;;;;;;;;4993415;28;20064;-65
2021/10/13 03:20:32;;;;;;;22.50;11.43;;;;;;;;;;4993502;28;20490;-66
2021/10/13 03:22:59;;;;;;;23.08;12.02;;;;;;;;;;4993661;28;20092;-65
2021/10/13 03:25:31;;;;;;;19.15;11.75;;;;;;;;;;4993500;28;20038;-64
2021/10/13 03:27:57;;;;;;;19.83;11.35;;;;;;;;;;4993424;28;20022;-65
2021/10/13 03:30:23;;;;;;;21.17;11.38;;;;;;;;;;4993404;28;20050;-64
2021/10/13 03:32:48;;;;;;;32.00;13.15;;;;;;;;;;4992993;28;20057;-65
2021/10/13 03:35:24;;;;;;;27.40;12.55;;;;;;;;;;4993391;28;20030;-65
2021/10/13 03:37:49;;;;;;;23.65;12.45;;;;;;;;;;4993504;28;20475;-65
2021/10/13 03:40:16;;;;;;;28.67;12.55;;;;;;;;;;4993283;28;20103;-65
2021/10/13 03:42:41;;;;;;;32.40;13.45;;;;;;;;;;4993393;28;20033;-64
2021/10/13 03:45:06;;;;;;;23.80;12.00;;;;;;;;;;4993297;28;20101;-65
2021/10/13 03:47:32;;;;;;;39.58;13.60;;;;;;;;;;4993147;28;20028;-64
2021/10/13 03:49:57;;;;;;;30.65;13.25;;;;;;;;;;4993169;28;20026;-64
2021/10/13 03:52:22;;;;;;;28.08;13.48;;;;;;;;;;4993342;28;20408;-64
2021/10/13 03:54:47;;;;;;;25.90;13.02;;;;;;;;;;4993127;28;20022;-66
2021/10/13 03:57:13;;;;;;;32.58;13.25;;;;;;;;;;4994020;28;20037;-65
2021/10/13 03:59:38;;;;;;;26.65;13.40;;;;;;;;;;4993423;28;20093;-64
2021/10/13 04:02:03;;;;;;;25.85;12.90;;;;;;;;;;4996858;28;20380;-64
2021/10/13 04:04:28;;;;;;;31.23;12.73;;;;;;;;;;4997081;28;20022;-64
2021/10/13 04:06:54;;;;;;;23.58;11.88;;;;;;;;;;4997251;28;20105;-64
2021/10/13 04:09:19;;;;;;;30.58;12.85;;;;;;;;;;4995648;28;20026;-65
2021/10/13 04:11:44;;;;;;;26.38;12.55;;;;;;;;;;4997339;28;20049;-65
2021/10/13 04:14:09;;;;;;;24.70;12.48;;;;;;;;;;4997537;28;20065;-65
2021/10/13 04:16:35;;;;;;;29.15;13.55;;;;;;;;;;4996668;28;20020;-65
2021/10/13 04:19:00;;;;;;;33.78;13.85;;;;;;;;;;4996802;28;20490;-66
2021/10/13 04:21:25;;;;;;;35.33;16.67;;;;;;;;;;4996985;28;20018;-65
2021/10/13 04:23:50;;;;;;;27.17;13.95;;;;;;;;;;4996675;28;20039;-65
2021/10/13 04:26:16;;;;;;;27.08;14.65;;;;;;;;;;4996570;28;20415;-64
2021/10/13 04:28:41;;;;;;;32.97;15.68;;;;;;;;;;4996730;28;20069;-65
2021/10/13 04:31:06;;;;;;;27.02;13.55;;;;;;;;;;4996515;28;20022;-66
2021/10/13 04:33:31;;;;;;;33.92;14.40;;;;;;;;;;4996507;28;20424;-65
2021/10/13 04:35:57;;;;;;;26.80;13.65;;;;;;;;;;4996502;28;20023;-65
2021/10/13 04:38:22;;;;;;;29.63;15.32;;;;;;;;;;4996685;28;20029;-65
2021/10/13 04:40:47;;;;;;;37.10;16.15;;;;;;;;;;4996563;28;20018;-65
2021/10/13 04:43:12;;;;;;;35.22;18.27;;;;;;;;;;4996463;28;20462;-64
2021/10/13 04:45:38;;;;;;;35.63;18.70;;;;;;;;;;4996268;28;20112;-65
2021/10/13 04:48:03;;;;;;;36.35;18.85;;;;;;;;;;4996568;28;20022;-65
2021/10/13 04:50:28;;;;;;;45.45;20.38;;;;;;;;;;4996263;28;20427;-66
2021/10/13 04:52:54;;;;;;;39.17;20.30;;;;;;;;;;4996118;28;20026;-65
2021/10/13 04:55:19;;;;;;;44.92;18.88;;;;;;;;;;4996254;28;20489;-65
2021/10/13 04:57:44;;;;;;;44.50;17.83;;;;;;;;;;4996069;28;20026;-64
2021/10/13 05:00:10;;;;;;;51.85;16.77;;;;;;;;;;4995973;28;20086;-65
2021/10/13 05:02:35;;;;;;;51.45;17.73;;;;;;;;;;4995494;28;20054;-64
2021/10/13 05:05:00;;;;;;;37.22;16.60;;;;;;;;;;4996007;28;20461;-64
2021/10/13 05:07:26;;;;;;;43.58;14.20;;;;;;;;;;4995899;28;20022;-66
2021/10/13 05:09:51;;;;;;;33.75;15.13;;;;;;;;;;4995721;28;20022;-65
2021/10/13 05:12:16;;;;;;;40.22;14.38;;;;;;;;;;4995186;28;20069;-64
2021/10/13 05:14:41;;;;;;;45.80;13.95;;;;;;;;;;4995594;28;20379;-65
2021/10/13 05:17:07;;;;;;;53.33;17.23;;;;;;;;;;4995639;28;20054;-64
2021/10/13 05:19:32;;;;;;;35.42;15.40;;;;;;;;;;4995690;28;20505;-64
2021/10/13 05:21:57;;;;;;;37.13;15.05;;;;;;;;;;4995574;28;20104;-65
2021/10/13 05:24:23;;;;;;;28.83;13.25;;;;;;;;;;4995724;28;20498;-65
2021/10/13 05:26:48;;;;;;;38.47;14.35;;;;;;;;;;4995479;28;20442;-65
2021/10/13 05:29:13;;;;;;;45.55;15.00;;;;;;;;;;4995275;28;20046;-64
2021/10/13 05:31:39;;;;;;;24.60;14.73;;;;;;;;;;4995205;28;20098;-65
2021/10/13 05:34:04;;;;;;;35.45;15.02;;;;;;;;;;4995179;28;20017;-65
2021/10/13 05:36:29;;;;;;;33.55;14.75;;;;;;;;;;4995552;28;20040;-65
2021/10/13 05:38:55;;;;;;;32.10;14.68;;;;;;;;;;4994590;28;20484;-63
2021/10/13 05:41:20;;;;;;;36.50;16.00;;;;;;;;;;4991588;28;20018;-63
2021/10/13 05:43:46;;;;;;;33.97;15.23;;;;;;;;;;4984480;28;20491;-63
2021/10/13 05:46:11;;;;;;;33.85;15.05;;;;;;;;;;4986381;28;20029;-63
2021/10/13 05:48:36;;;;;;;46.08;16.75;;;;;;;;;;4985250;28;20363;-63
2021/10/13 05:51:01;;;;;;;34.90;16.88;;;;;;;;;;4975714;28;20023;-63
2021/10/13 05:53:28;;;;;;;33.13;16.00;;;;;;;;;;4975933;28;20479;-63
2021/10/13 05:55:54;;;;;;;42.67;17.27;;;;;;;;;;4986810;28;20061;-63
2021/10/13 05:58:22;;;;;;;46.65;19.27;;;;;;;;;;4995814;28;20058;-63
2021/10/13 06:00:47;;;;;;;30.80;15.82;;;;;;;;;;4995076;28;20014;-63
2021/10/13 06:03:12;;;;;;;33.17;16.88;;;;;;;;;;4994481;28;20115;-63
2021/10/13 06:05:38;;;;;;;33.47;16.83;;;;;;;;;;4994596;28;20026;-63
2021/10/13 06:08:03;;;;;;;36.03;17.27;;;;;;;;;;4993906;28;20110;-63
2021/10/13 06:10:28;;;;;;;34.33;16.98;;;;;;;;;;4994492;28;20018;-63
2021/10/13 06:12:54;;;;;;;32.47;16.52;;;;;;;;;;4988963;28;20033;-63
2021/10/13 06:15:20;;;;;;;39.67;17.55;;;;;;;;;;4986726;28;20037;-63
2021/10/13 06:17:46;;;;;;;38.72;17.48;;;;;;;;;;4999482;28;20011;-62
2021/10/13 06:20:11;;;;;;;31.75;16.92;;;;;;;;;;4987907;28;20097;-63
2021/10/13 06:22:37;;;;;;;31.02;15.23;;;;;;;;;;4994257;28;20026;-64
2021/10/13 06:25:03;;;;;;;24.20;13.73;;;;;;;;;;4993831;28;20031;-63
2021/10/13 06:27:29;;;;;;;28.88;15.45;;;;;;;;;;4994709;28;20084;-64
2021/10/13 06:29:54;;;;;;;29.25;15.27;;;;;;;;;;4994366;28;20355;-64
2021/10/13 06:32:19;;;;;;;26.98;14.10;;;;;;;;;;4994430;28;20045;-63
2021/10/13 06:34:44;;;;;;;24.33;13.90;;;;;;;;;;4991435;28;20025;-63
2021/10/13 06:37:09;;;;;;;25.33;15.00;;;;;;;;;;4993434;28;20528;-68
2021/10/13 06:39:37;;;;;;;23.27;13.43;;;;;;;;;;4987560;28;20022;-66
2021/10/13 06:42:02;;;;;;;23.52;12.60;;;;;;;;;;4989078;28;20021;-65
2021/10/13 06:44:28;;;;;;;25.35;12.60;;;;;;;;;;4992762;28;20030;-65
2021/10/13 06:46:54;;;;;;;24.40;13.10;;;;;;;;;;4991776;28;20049;-64
2021/10/13 06:49:19;;;;;;;24.88;13.38;;;;;;;;;;4991006;28;20026;-62
2021/10/13 06:51:44;;;;;;;27.55;12.98;;;;;;;;;;4992561;28;20010;-62
2021/10/13 06:54:10;;;;;;;20.00;11.00;;;;;;;;;;4993677;28;20495;-61
2021/10/13 06:56:35;;;;;;;23.30;12.90;;;;;;;;;;4993268;28;20041;-62
2021/10/13 06:59:00;;;;;;;20.65;11.40;;;;;;;;;;4990742;28;20467;-62
2021/10/13 07:01:26;;;;;;;14.73;10.90;;;;;;;;;;4991443;28;20437;-62
2021/10/13 07:03:51;;;;;;;16.00;10.65;;;;;;;;;;4992404;28;20108;-61
2021/10/13 07:06:16;;;;;;;19.27;11.70;;;;;;;;;;4992762;28;20022;-67
2021/10/13 07:08:42;;;;;;;19.42;11.45;;;;;;;;;;4993692;28;20730;-62
2021/10/13 07:11:09;;;;;;;15.18;11.23;;;;;;;;;;4993306;28;20026;-65
2021/10/13 07:13:34;;;;;;;20.33;11.18;;;;;;;;;;4993313;28;20022;-65
2021/10/13 07:16:00;;;;;;;14.77;10.90;;;;;;;;;;4993434;28;20371;-66
2021/10/13 07:18:25;;;;;;;18.02;11.00;;;;;;;;;;4992349;28;20033;-67
2021/10/13 07:20:50;;;;;;;18.25;10.35;;;;;;;;;;4991912;28;20482;-65
2021/10/13 07:23:15;;;;;;;15.52;10.38;;;;;;;;;;4989572;28;20030;-68
2021/10/13 07:25:41;;;;;;;16.08;10.13;;;;;;;;;;4990855;28;20018;-67
2021/10/13 07:28:15;;;;;;;15.38;10.10;;;;;;;;;;4991753;28;20081;-66
2021/10/13 07:30:41;;;;;;;15.48;9.38;;;;;;;;;;4993043;28;20014;-66
2021/10/13 07:33:06;;;;;;;14.73;9.40;;;;;;;;;;4992862;28;20600;-68
2021/10/13 07:35:32;;;;;;;15.93;9.88;;;;;;;;;;4992928;28;20383;-66
2021/10/13 07:37:57;;;;;;;12.15;8.88;;;;;;;;;;4994292;28;20455;-67
2021/10/13 07:40:23;;;;;;;11.95;8.35;;;;;;;;;;4995427;28;20495;-66
2021/10/13 07:42:48;;;;;;;14.32;8.70;;;;;;;;;;4991267;28;20410;-66
2021/10/13 07:45:15;;;;;;;18.00;9.35;;;;;;;;;;4991922;28;20026;-67
2021/10/13 07:47:41;;;;;;;15.85;6.97;;;;;;;;;;4991698;28;20471;-68
2021/10/13 07:50:06;;;;;;;15.07;8.65;;;;;;;;;;4992744;28;20033;-67
2021/10/13 07:52:31;;;;;;;12.70;8.30;;;;;;;;;;4992683;28;20105;-66
2021/10/13 07:54:57;;;;;;;13.63;7.60;;;;;;;;;;4993024;28;20030;-67
2021/10/13 07:57:22;;;;;;;10.02;7.57;;;;;;;;;;4992609;28;20101;-62
2021/10/13 07:59:47;;;;;;;30.95;7.30;;;;;;;;;;4992288;28;20022;-61
2021/10/13 08:02:12;;;;;;;10.98;7.45;;;;;;;;;;4990688;28;20035;-61
2021/10/13 08:04:38;;;;;;;8.98;6.05;;;;;;;;;;4990307;28;20503;-62
2021/10/13 08:07:03;;;;;;;11.30;6.28;;;;;;;;;;5002440;28;20022;-63
2021/10/13 08:09:28;;;;;;;11.80;7.28;;;;;;;;;;5012403;28;20010;-62
2021/10/13 08:11:53;;;;;;;9.90;6.65;;;;;;;;;;5005614;28;20025;-62
2021/10/13 08:14:19;;;;;;;10.15;6.50;;;;;;;;;;4991145;28;20186;-61
2021/10/13 08:16:44;;;;;;;8.48;6.07;;;;;;;;;;4990906;28;20126;-61
2021/10/13 08:19:09;;;;;;;9.68;6.50;;;;;;;;;;4989481;28;20014;-60
2021/10/13 08:21:35;;;;;;;10.48;5.70;;;;;;;;;;4988143;28;20018;-61
2021/10/13 08:24:00;;;;;;;7.15;5.93;;;;;;;;;;4990626;28;20113;-61
2021/10/13 08:26:26;;;;;;;9.38;5.90;;;;;;;;;;4990235;28;20025;-61
2021/10/13 08:28:51;;;;;;;7.97;5.80;;;;;;;;;;4989976;28;20153;-61
2021/10/13 08:31:16;;;;;;;8.07;5.90;;;;;;;;;;4986262;28;20022;-62
2021/10/13 08:33:42;;;;;;;7.32;5.60;;;;;;;;;;4983995;28;20105;-63
2021/10/13 08:36:07;;;;;;;8.25;6.20;;;;;;;;;;4982396;28;20467;-69
2021/10/13 08:38:33;;;;;;;11.77;5.68;;;;;;;;;;4983770;28;20037;-70
2021/10/13 08:40:58;;;;;;;7.63;4.88;;;;;;;;;;4985594;28;20026;-64
2021/10/13 08:43:23;;;;;;;9.63;5.13;;;;;;;;;;4990632;28;20042;-62
2021/10/13 08:45:49;;;;;;;9.02;5.55;;;;;;;;;;4991613;28;20102;-62
2021/10/13 08:48:14;;;;;;;6.88;5.35;;;;;;;;;;4995031;28;20022;-68
2021/10/13 08:50:40;;;;;;;7.95;4.95;;;;;;;;;;4996005;28;20538;-63
2021/10/13 08:53:09;;;;;;;5.90;4.53;;;;;;;;;;4995840;28;20109;-62
2021/10/13 08:55:34;;;;;;;;;;;;;;;;;;4996350;28;20033;-62
2021/10/13 08:58:09;;;;;;;5.47;4.50;;;;;;;;;;4995152;28;19909;-62
2021/10/13 09:00:35;;;;;;;6.38;4.03;;;;;;;;;;4995256;28;20026;-62
2021/10/13 09:03:01;;;;;;;5.05;3.53;;;;;;;;;;4995372;28;20066;-69
2021/10/13 09:05:26;;;;;;;5.60;3.42;;;;;;;;;;4993163;28;20018;-67
2021/10/13 09:07:53;;;;;;;5.60;3.88;;;;;;;;;;4995650;28;20467;-70
2021/10/13 09:10:32;;;;;;;5.22;3.58;;;;;;;;;;4995548;28;20014;-71
2021/10/13 09:13:01;;;;;;;6.97;3.25;;;;;;;;;;4995859;28;20057;-71
2021/10/13 09:15:27;;;;;;;;;;;;;;;;;;4995774;28;20400;-68
2021/10/13 09:17:55;;;;;;;3.70;3.10;;;;;;;;;;4996837;28;20350;-71
2021/10/13 09:20:28;;;;;;;4.13;3.35;;;;;;;;;;4995060;28;20030;-70
2021/10/13 09:22:54;;;;;;;4.32;3.40;;;;;;;;;;4994173;28;20026;-70
2021/10/13 09:25:19;;;;;;;5.90;3.95;;;;;;;;;;4994133;28;20061;-71
2021/10/13 09:27:46;;;;;;;5.05;3.83;;;;;;;;;;4995355;28;20100;-70
2021/10/13 09:30:11;;;;;;;4.70;3.80;;;;;;;;;;4995110;28;20590;-70
2021/10/13 09:32:40;;;;;;;7.03;3.53;;;;;;;;;;4994666;28;20054;-70
2021/10/13 09:35:06;;;;;;;6.45;3.28;;;;;;;;;;4994951;28;20029;-70
2021/10/13 09:37:43;;;;;;;4.40;3.47;;;;;;;;;;4995077;28;20101;-71
2021/10/13 09:40:08;;;;;;;5.65;3.92;;;;;;;;;;4993684;28;20053;-69
2021/10/13 09:42:38;;;;;;;5.18;3.10;;;;;;;;;;4994763;28;20030;-71
2021/10/13 09:45:03;;;;;;;5.00;3.80;;;;;;;;;;4994985;28;20117;-71
2021/10/13 09:47:30;;;;;;;3.88;2.90;;;;;;;;;;4994999;28;20172;-70
2021/10/13 09:49:56;;;;;;;2.88;2.40;;;;;;;;;;4994454;28;20525;-70
2021/10/13 09:52:29;;;;;;;4.32;2.78;;;;;;;;;;4994872;28;20097;-70
2021/10/13 09:55:02;;;;;;;3.47;2.80;;;;;;;;;;4987874;28;20031;-70
2021/10/13 09:57:29;;;;;;;3.47;2.80;;;;;;;;;;4993098;28;20430;-69
2021/10/13 10:00:03;;;;;;;3.00;2.50;;;;;;;;;;4993515;28;20029;-69
2021/10/13 10:02:30;;;;;;;2.95;2.50;;;;;;;;;;4990041;28;20046;-69
2021/10/13 10:04:58;;;;;;;3.40;2.40;;;;;;;;;;4981976;28;20118;-70
2021/10/13 10:07:24;;;;;;;5.63;2.65;;;;;;;;;;4982496;28;20031;-70
2021/10/13 10:10:21;;;;;;;3.15;2.17;;;;;;;;;;4987649;28;20019;-70
2021/10/13 10:12:56;;;;;;;3.03;2.25;;;;;;;;;;4973500;28;20035;-71
2021/10/13 10:15:27;;;;;;;2.90;2.58;;;;;;;;;;4991611;28;20034;-70
2021/10/13 10:20:56;;;;;;;2.70;2.20;;;;;;;;;;4986736;28;20093;-72
2021/10/13 10:23:31;;;;;;;2.88;2.38;;;;;;;;;;4992632;28;20030;-70
2021/10/13 10:26:01;;;;;;;2.78;2.30;;;;;;;;;;4993665;28;20022;-70
2021/10/13 10:28:45;;;;;;;2.90;2.58;;;;;;;;;;4994300;28;20025;-71
2021/10/13 10:31:31;;;;;;;2.78;2.08;;;;;;;;;;4993200;28;20034;-70
2021/10/13 10:34:02;;;;;;;4.40;1.83;;;;;;;;;;4991610;28;20041;-70
2021/10/13 10:36:28;;;;;;;2.78;2.15;;;;;;;;;;4989635;28;20482;-70
2021/10/13 10:38:53;;;;;;;2.63;2.35;;;;;;;;;;4993885;28;20018;-71
2021/10/13 10:41:18;;;;;;;2.15;1.95;;;;;;;;;;4992583;28;20556;-71
2021/10/13 10:43:44;;;;;;;4.10;2.13;;;;;;;;;;4994348;28;20505;-70
2021/10/13 10:46:09;;;;;;;4.60;2.07;;;;;;;;;;4992720;28;20029;-69
2021/10/13 10:48:45;;;;;;;4.05;2.45;;;;;;;;;;4994083;28;20271;-70
2021/10/13 10:51:10;;;;;;;3.25;1.98;;;;;;;;;;4993685;28;20073;-71
2021/10/13 10:53:44;;;;;;;2.65;1.55;;;;;;;;;;4994167;28;20042;-71
2021/10/13 10:56:09;;;;;;;1.73;1.60;;;;;;;;;;4993567;28;20049;-70
2021/10/13 10:58:35;;;;;;;2.53;1.52;;;;;;;;;;4994847;28;20467;-68
2021/10/13 11:01:00;;;;;;;4.35;1.52;;;;;;;;;;4994491;28;20040;-70
2021/10/13 11:03:31;;;;;;;2.88;1.70;;;;;;;;;;4989309;28;20497;-70
2021/10/13 11:06:07;;;;;;;2.25;1.60;;;;;;;;;;4973970;28;20501;-70
2021/10/13 11:08:33;;;;;;;2.28;1.60;;;;;;;;;;4973897;28;20022;-68
2021/10/13 11:11:11;;;;;;;2.03;1.50;;;;;;;;;;4979735;28;20015;-69
2021/10/13 11:13:36;;;;;;;2.35;1.70;;;;;;;;;;4985570;28;20484;-70
2021/10/13 11:16:07;;;;;;;2.85;1.70;;;;;;;;;;4989835;28;20035;-68
2021/10/13 11:18:32;;;;;;;2.30;1.40;;;;;;;;;;4995220;28;20015;-69
2021/10/13 11:21:07;;;;;;;3.90;1.38;;;;;;;;;;4992957;28;20045;-69
2021/10/13 11:23:33;;;;;;;3.03;1.55;;;;;;;;;;4991019;28;20050;-69
2021/10/13 11:25:58;;;;;;;1.57;1.10;;;;;;;;;;4985282;28;20088;-71
2021/10/13 11:28:23;;;;;;;1.10;1.00;;;;;;;;;;4973467;28;20252;-70
2021/10/13 11:30:49;;;;;;;1.17;1.03;;;;;;;;;;4973504;28;20811;-70
2021/10/13 11:33:18;;;;;;;1.65;1.27;;;;;;;;;;4983378;28;20267;-71
2021/10/13 11:35:44;;;;;;;;;;;;;;;;;;4975067;28;20042;-70
2021/10/13 11:38:20;;;;;;;3.47;1.10;;;;;;;;;;4985237;28;20370;-70
2021/10/13 11:40:45;;;;;;;2.05;0.82;;;;;;;;;;4992703;28;20036;-71
2021/10/13 11:43:12;;;;;;;1.35;0.90;;;;;;;;;;4992659;28;20022;-70
2021/10/13 11:45:47;;;;;;;1.38;0.90;;;;;;;;;;4991855;28;20483;-71
2021/10/13 11:48:20;;;;;;;2.22;1.10;;;;;;;;;;4983540;28;20027;-71
2021/10/13 11:50:46;;;;;;;1.48;0.82;;;;;;;;;;4973650;28;20038;-71
2021/10/13 11:53:13;;;;;;;1.73;1.10;;;;;;;;;;4973204;28;20018;-71
2021/10/13 11:55:38;;;;;;;1.88;1.00;;;;;;;;;;4973261;28;20022;-71
2021/10/13 11:58:04;;;;;;;2.53;0.93;;;;;;;;;;4983831;28;20034;-70
2021/10/13 12:00:30;;;;;;;1.80;1.00;;;;;;;;;;4975462;28;20023;-71
2021/10/13 12:02:56;;;;;;;2.13;1.00;;;;;;;;;;4982955;28;20462;-71
2021/10/13 12:05:27;;;;;;;1.83;0.90;;;;;;;;;;4991859;28;20026;-71
2021/10/13 12:07:52;;;;;;;2.47;1.00;;;;;;;;;;4990061;28;20259;-71
2021/10/13 12:10:17;;;;;;;1.20;0.70;;;;;;;;;;4987400;28;20011;-72
2021/10/13 12:12:59;;;;;;;3.33;1.50;;;;;;;;;;4992107;28;20033;-71
2021/10/13 12:15:25;;;;;;;1.90;1.10;;;;;;;;;;4991509;28;20029;-70
2021/10/13 12:18:06;;;;;;;1.50;1.10;;;;;;;;;;4991485;28;20467;-70
2021/10/13 12:20:32;;;;;;;1.35;1.15;;;;;;;;;;4990149;28;20120;-63
2021/10/13 12:22:57;;;;;;;4.43;0.90;;;;;;;;;;4993723;28;20058;-63
2021/10/13 12:25:22;;;;;;;3.25;0.85;;;;;;;;;;4995996;28;20453;-64
2021/10/13 12:27:47;;;;;;;1.73;0.90;;;;;;;;;;4995914;28;20554;-63
2021/10/13 12:30:13;;;;;;;1.20;0.90;;;;;;;;;;4996246;28;20764;-63
2021/10/13 12:32:38;;;;;;;2.35;1.10;;;;;;;;;;4996270;28;20263;-64
2021/10/13 12:35:12;;;;;;;1.88;1.05;;;;;;;;;;4995422;28;20029;-64
2021/10/13 12:37:45;;;;;;;4.35;1.00;;;;;;;;;;4995715;28;20046;-65
2021/10/13 12:40:14;;;;;;;2.65;1.10;;;;;;;;;;4996263;28;20022;-69
2021/10/13 12:42:39;;;;;;;1.52;1.10;;;;;;;;;;4996125;28;20383;-70
2021/10/13 12:45:04;;;;;;;1.67;1.40;;;;;;;;;;4996107;28;20034;-63
2021/10/13 12:47:30;;;;;;;1.67;1.02;;;;;;;;;;4995924;28;20110;-72
2021/10/13 12:49:57;;;;;;;2.28;0.93;;;;;;;;;;4995352;28;20022;-64
2021/10/13 12:52:22;;;;;;;2.83;1.40;;;;;;;;;;4995250;28;20407;-63
2021/10/13 12:54:50;;;;;;;1.70;1.23;;;;;;;;;;4995992;28;20026;-63
2021/10/13 12:57:19;;;;;;;2.65;1.55;;;;;;;;;;4996159;28;20023;-63
2021/10/13 12:59:45;;;;;;;2.55;1.95;;;;;;;;;;4995920;28;20029;-62
2021/10/13 13:02:11;;;;;;;2.88;1.30;;;;;;;;;;4994618;28;20038;-63
2021/10/13 13:04:36;;;;;;;2.70;1.20;;;;;;;;;;4994858;28;20102;-70
2021/10/13 13:07:04;;;;;;;2.75;1.35;;;;;;;;;;4994639;28;20033;-67
2021/10/13 13:09:29;;;;;;;1.85;1.02;;;;;;;;;;4996070;28;20015;-63
2021/10/13 13:11:55;;;;;;;1.60;1.20;;;;;;;;;;4995568;28;20019;-64
2021/10/13 13:14:20;;;;;;;1.88;1.00;;;;;;;;;;4995500;28;20023;-64
2021/10/13 13:16:45;;;;;;;1.50;1.10;;;;;;;;;;4995718;28;20033;-69
2021/10/13 13:19:13;;;;;;;1.52;1.20;;;;;;;;;;4995464;28;20046;-70
2021/10/13 13:21:38;;;;;;;4.35;1.40;;;;;;;;;;4995286;28;20030;-69
2021/10/13 13:24:04;;;;;;;2.58;1.00;;;;;;;;;;4995212;28;20038;-69
2021/10/13 13:26:29;;;;;;;5.20;1.00;;;;;;;;;;4995247;28;20097;-67
2021/10/13 13:28:54;;;;;;;3.88;1.25;;;;;;;;;;4995569;28;20031;-67
2021/10/13 13:31:20;;;;;;;1.63;1.30;;;;;;;;;;4992915;28;20022;-67
2021/10/13 13:33:45;;;;;;;2.65;1.10;;;;;;;;;;4981064;28;20022;-72
2021/10/13 13:36:11;;;;;;;8.32;1.10;;;;;;;;;;4987522;28;20109;-72
2021/10/13 13:38:36;;;;;;;1.20;0.90;;;;;;;;;;4994714;28;20022;-71
2021/10/13 13:41:02;;;;;;;2.33;1.00;;;;;;;;;;4995017;28;20076;-64
2021/10/13 13:43:27;;;;;;;1.17;1.08;;;;;;;;;;4995005;28;20030;-63
2021/10/13 13:45:52;;;;;;;5.20;1.45;;;;;;;;;;4993299;28;20141;-64
2021/10/13 13:48:18;;;;;;;2.08;1.38;;;;;;;;;;4991204;28;20022;-67
2021/10/13 13:50:43;;;;;;;2.95;1.10;;;;;;;;;;4993269;28;20030;-66
2021/10/13 13:53:08;;;;;;;1.23;1.00;;;;;;;;;;4994282;28;20015;-65
2021/10/13 13:55:36;;;;;;;6.18;1.45;;;;;;;;;;4994226;28;20050;-65
2021/10/13 13:58:02;;;;;;;1.40;1.17;;;;;;;;;;4993822;28;20090;-64
2021/10/13 14:00:28;;;;;;;2.35;1.30;;;;;;;;;;4993572;28;20022;-64
2021/10/13 14:02:53;;;;;;;2.45;1.20;;;;;;;;;;4992935;28;20387;-64
2021/10/13 14:05:18;;;;;;;4.38;1.10;;;;;;;;;;4993600;28;20394;-64
2021/10/13 14:07:44;;;;;;;2.08;0.90;;;;;;;;;;4990644;28;20054;-64
2021/10/13 14:10:09;;;;;;;2.25;1.20;;;;;;;;;;4982090;28;20026;-64
2021/10/13 14:12:35;;;;;;;1.20;1.10;;;;;;;;;;4992477;28;20400;-64
2021/10/13 14:15:00;;;;;;;0.95;0.85;;;;;;;;;;4992003;28;20129;-63
2021/10/13 14:17:26;;;;;;;1.15;1.02;;;;;;;;;;4992330;28;20030;-64
2021/10/13 14:19:51;;;;;;;4.28;1.10;;;;;;;;;;4987649;28;20435;-64
2021/10/13 14:22:16;;;;;;;1.33;0.90;;;;;;;;;;4976983;28;20023;-64
2021/10/13 14:24:42;;;;;;;2.22;1.10;;;;;;;;;;4985162;28;20034;-63
2021/10/13 14:27:08;;;;;;;1.40;1.00;;;;;;;;;;4980030;28;20080;-64
2021/10/13 14:29:34;;;;;;;1.55;0.85;;;;;;;;;;4987975;28;20097;-64